Time;durP1;ratioP1;P1;durP2;ratioP2;P2;SDS_P1;SDS_P2;PMS_P1;PMS_P2;Temp;Humidity;BMP_temperature;BMP_pressure;BME280_temperature;BME280_humidity;BME280_pressure;Samples;Min_cycle;Max_cycle;Signal;HPM_P1;HPM_P2
2021/12/18 00:00:49;;;;;;;7.57;6.40;;;;;;;7.02;46.35;101758.69;5069934;28;20446;-64
2021/12/18 00:03:17;;;;;;;10.70;8.25;;;;;;;7.01;46.38;101762.28;5054732;28;20410;-64
2021/12/18 00:05:44;;;;;;;9.82;7.07;;;;;;;6.93;46.54;101761.78;5069823;28;20418;-64
2021/12/18 00:08:11;;;;;;;9.40;6.82;;;;;;;7.08;46.25;101767.25;5069788;28;20406;-64
2021/12/18 00:10:40;;;;;;;8.90;6.65;;;;;;;7.00;46.32;101770.25;5069650;28;20865;-64
2021/12/18 00:13:07;;;;;;;9.60;7.27;;;;;;;7.28;45.87;101768.81;5070001;28;20431;-64
2021/12/18 00:15:34;;;;;;;12.77;8.23;;;;;;;7.19;45.98;101764.88;5069858;28;20419;-64
2021/12/18 00:18:01;;;;;;;11.45;7.68;;;;;;;7.12;46.19;101768.78;5069596;28;20923;-64
2021/12/18 00:20:29;;;;;;;10.48;7.38;;;;;;;7.15;46.04;101773.88;5069887;28;20439;-64
2021/12/18 00:22:57;;;;;;;9.68;7.25;;;;;;;7.11;46.00;101778.44;5069550;28;20904;-65
2021/12/18 00:25:24;;;;;;;8.77;6.57;;;;;;;7.15;46.11;101773.88;5069726;28;20414;-64
2021/12/18 00:27:52;;;;;;;10.90;7.47;;;;;;;7.08;46.57;101769.88;5069484;28;20938;-64
2021/12/18 00:30:20;;;;;;;10.68;7.38;;;;;;;7.15;46.09;101771.25;5069465;28;20982;-64
2021/12/18 00:32:47;;;;;;;10.43;8.07;;;;;;;7.15;45.96;101779.16;5069392;28;21029;-65
2021/12/18 00:35:14;;;;;;;11.27;7.10;;;;;;;7.12;46.08;101776.69;5069160;28;20403;-65
2021/12/18 00:37:41;;;;;;;9.73;6.60;;;;;;;7.08;46.22;101776.00;5069392;28;20498;-64
2021/12/18 00:40:19;;;;;;;9.63;6.25;;;;;;;7.01;46.32;101771.94;5069283;28;20446;-64
2021/12/18 00:42:49;;;;;;;9.17;6.70;;;;;;;6.80;47.11;101777.38;5069312;28;20503;-64
2021/12/18 00:45:18;;;;;;;8.35;6.20;;;;;;;7.04;46.27;101776.22;5068897;28;20978;-65
2021/12/18 00:47:48;;;;;;;10.23;6.65;;;;;;;6.96;46.57;101785.38;5068939;28;20502;-64
2021/12/18 00:50:18;;;;;;;9.68;7.20;;;;;;;6.88;46.54;101782.25;5069591;28;20489;-64
2021/12/18 00:52:46;;;;;;;8.40;6.37;;;;;;;6.84;46.87;101785.97;5069209;28;20856;-64
2021/12/18 00:55:13;;;;;;;11.60;7.47;;;;;;;6.80;46.88;101777.38;5069582;28;20499;-64
2021/12/18 00:57:40;;;;;;;9.90;7.67;;;;;;;6.79;47.21;101774.81;5069533;28;20495;-64
2021/12/18 01:00:10;;;;;;;11.38;7.70;;;;;;;6.90;47.05;101779.56;5069506;28;20441;-64
2021/12/18 01:02:43;;;;;;;10.02;6.95;;;;;;;6.67;47.69;101778.94;5050387;28;20406;-64
2021/12/18 01:05:11;;;;;;;8.77;6.70;;;;;;;6.48;48.40;101771.06;5069692;28;20407;-64
2021/12/18 01:07:39;;;;;;;10.07;7.23;;;;;;;6.52;48.06;101783.16;5069368;28;20421;-64
2021/12/18 01:10:20;;;;;;;9.25;7.13;;;;;;;6.46;48.28;101780.81;5069382;28;20421;-64
2021/12/18 01:12:49;;;;;;;10.50;7.00;;;;;;;6.41;48.44;101777.56;5068896;28;20477;-64
2021/12/18 01:15:21;;;;;;;9.15;7.13;;;;;;;6.36;48.59;101779.56;5068972;28;20824;-64
2021/12/18 01:23:18;;;;;;;8.95;6.07;;;;;;;6.03;49.73;101779.38;5069074;28;20789;-64
2021/12/18 01:25:45;;;;;;;6.80;5.40;;;;;;;5.93;50.13;101771.03;5069213;28;20414;-64
2021/12/18 01:28:12;;;;;;;7.90;5.50;;;;;;;6.08;49.99;101772.97;5069231;28;20494;-64
2021/12/18 01:30:39;;;;;;;8.18;5.50;;;;;;;6.26;49.38;101767.75;5068860;28;20514;-64
2021/12/18 01:33:07;;;;;;;8.43;5.57;;;;;;;6.12;49.48;101773.69;5068799;28;20431;-64
2021/12/18 01:35:35;;;;;;;7.97;5.57;;;;;;;6.17;49.53;101769.06;5068878;28;20411;-64
2021/12/18 01:38:03;;;;;;;8.32;5.65;;;;;;;6.35;49.21;101772.59;5068899;28;21627;-64
2021/12/18 01:40:31;;;;;;;9.57;5.93;;;;;;;6.31;49.33;101765.78;5068745;28;20414;-64
2021/12/18 01:45:50;;;;;;;8.23;5.78;;;;;;;6.38;49.13;101762.75;5068786;28;20908;-64
2021/12/18 01:51:17;;;;;;;8.77;5.50;;;;;;;6.55;48.78;101780.38;5041744;28;20407;-64
2021/12/18 01:53:44;;;;;;;8.38;5.57;;;;;;;6.46;49.09;101772.91;5072297;28;20431;-64
2021/12/18 01:56:11;;;;;;;7.38;5.22;;;;;;;6.39;49.03;101771.53;5072374;28;20411;-64
2021/12/18 01:58:38;;;;;;;8.00;5.07;;;;;;;6.39;49.19;101768.88;5072595;28;20407;-64
2021/12/18 02:01:06;;;;;;;7.50;4.85;;;;;;;6.47;48.90;101771.13;5065872;28;20443;-65
2021/12/18 02:03:34;;;;;;;7.15;4.93;;;;;;;6.32;49.28;101773.56;5063942;28;20497;-64
2021/12/18 02:06:01;;;;;;;8.50;5.10;;;;;;;6.33;49.33;101770.03;5072191;28;20417;-64
2021/12/18 02:08:32;;;;;;;8.07;5.10;;;;;;;6.36;49.29;101764.59;5072451;28;20533;-64
2021/12/18 02:11:09;;;;;;;7.22;4.85;;;;;;;6.42;49.26;101764.31;5072394;28;20461;-64
2021/12/18 02:13:57;;;;;;;8.20;5.00;;;;;;;6.37;49.36;101766.31;5072235;28;20427;-64
2021/12/18 02:21:57;;;;;;;7.95;5.30;;;;;;;6.37;49.54;101786.53;5071964;28;20488;-64
2021/12/18 02:24:27;;;;;;;8.77;5.43;;;;;;;6.48;49.41;101778.97;5071877;28;20460;-64
2021/12/18 02:26:54;;;;;;;6.05;4.72;;;;;;;6.54;49.16;101773.38;5072127;28;20484;-64
2021/12/18 02:29:21;;;;;;;6.60;5.07;;;;;;;6.44;49.50;101774.78;5071707;28;20406;-64
2021/12/18 02:31:48;;;;;;;7.40;5.18;;;;;;;6.45;49.52;101779.13;5072046;28;20451;-64
2021/12/18 02:34:19;;;;;;;8.10;5.25;;;;;;;6.39;49.70;101779.41;5071511;28;20473;-64
2021/12/18 02:36:48;;;;;;;7.72;5.30;;;;;;;6.53;49.40;101786.63;5071263;28;20421;-64
2021/12/18 02:39:24;;;;;;;7.63;5.40;;;;;;;6.55;49.26;101784.75;5070793;28;20418;-64
2021/12/18 02:42:08;;;;;;;6.07;4.93;;;;;;;6.61;49.25;101784.50;5071044;28;20435;-64
2021/12/18 02:44:36;;;;;;;6.93;5.03;;;;;;;6.53;49.57;101782.22;5070835;28;20411;-65
2021/12/18 02:47:03;;;;;;;6.47;4.33;;;;;;;6.59;49.32;101783.72;5071001;28;20603;-64
2021/12/18 02:49:30;;;;;;;5.97;4.70;;;;;;;6.60;49.26;101785.41;5070080;28;20493;-64
2021/12/18 02:51:57;;;;;;;7.18;5.20;;;;;;;6.57;49.32;101783.78;5070477;28;20951;-64
2021/12/18 02:54:26;;;;;;;7.55;5.05;;;;;;;6.45;49.41;101778.25;5070852;28;20452;-64
2021/12/18 02:56:53;;;;;;;6.78;5.10;;;;;;;6.49;49.60;101782.44;5070595;28;20922;-64
2021/12/18 02:59:21;;;;;;;7.40;5.45;;;;;;;6.42;49.72;101781.88;5070097;28;20951;-64
2021/12/18 03:01:48;;;;;;;6.88;5.05;;;;;;;6.32;49.95;101784.09;5053840;28;20571;-64
2021/12/18 03:04:19;;;;;;;7.38;5.32;;;;;;;6.36;49.77;101784.81;5071306;28;20447;-64
2021/12/18 03:06:49;;;;;;;24.23;16.03;;;;;;;6.36;50.16;101785.66;5071218;28;20520;-64
2021/12/18 03:23:17;;;;;;;8.70;6.97;;;;;;;6.15;50.41;101792.81;5070645;28;20399;-64
2021/12/18 03:25:44;;;;;;;8.48;6.88;;;;;;;6.22;50.27;101794.25;5070516;28;20411;-64
2021/12/18 03:28:14;;;;;;;8.63;6.43;;;;;;;6.17;50.57;101796.22;5070602;28;20852;-64
2021/12/18 03:30:40;;;;;;;7.85;6.32;;;;;;;6.06;50.41;101795.00;5070755;28;20915;-64
2021/12/18 03:33:07;;;;;;;8.55;6.40;;;;;;;6.08;50.71;101801.91;5070174;28;20430;-64
2021/12/18 03:35:34;;;;;;;8.45;7.18;;;;;;;6.03;50.87;101798.66;5070460;28;20411;-64
2021/12/18 03:38:01;;;;;;;8.48;6.57;;;;;;;5.94;51.38;101797.28;5070379;28;20494;-64
2021/12/18 03:40:29;;;;;;;9.73;6.65;;;;;;;5.99;50.88;101797.09;5069897;28;20415;-64
2021/12/18 03:42:56;;;;;;;7.60;6.50;;;;;;;5.86;51.16;101801.16;5070329;28;20970;-64
2021/12/18 03:45:25;;;;;;;8.52;7.22;;;;;;;5.90;51.19;101807.97;5070452;28;20506;-65
2021/12/18 03:47:52;;;;;;;9.60;7.03;;;;;;;5.86;51.18;101811.66;5070470;28;20413;-64
2021/12/18 03:50:21;;;;;;;11.80;10.50;;;;;;;5.96;51.07;101811.25;5070402;28;20429;-64
2021/12/18 03:52:49;;;;;;;9.02;7.40;;;;;;;5.87;51.33;101808.13;5070246;28;20514;-64
2021/12/18 03:55:16;;;;;;;10.68;8.80;;;;;;;5.81;51.19;101819.78;5069970;28;20415;-64
2021/12/18 03:57:44;;;;;;;9.40;7.82;;;;;;;5.81;51.32;101812.75;5070269;28;20498;-64
2021/12/18 04:00:14;;;;;;;8.85;7.07;;;;;;;5.75;51.48;101815.66;5069925;28;20486;-64
2021/12/18 04:02:43;;;;;;;10.55;7.70;;;;;;;5.71;51.58;101816.69;5047696;28;20505;-64
2021/12/18 04:05:11;;;;;;;66.10;27.55;;;;;;;5.79;51.42;101830.34;5069789;28;20410;-65
2021/12/18 04:07:42;;;;;;;9.25;7.25;;;;;;;5.70;51.62;101825.53;5070470;28;20489;-65
2021/12/18 04:10:10;;;;;;;9.82;8.77;;;;;;;5.75;51.56;101825.31;5070067;28;20407;-64
2021/12/18 04:12:37;;;;;;;10.05;8.98;;;;;;;5.79;51.43;101835.63;5069361;28;20582;-64
2021/12/18 04:15:04;;;;;;;9.50;8.10;;;;;;;5.73;51.56;101833.25;5052211;28;20419;-64
2021/12/18 04:17:32;;;;;;;11.15;7.55;;;;;;;5.67;51.83;101845.84;5069615;28;20502;-64
2021/12/18 04:20:00;;;;;;;9.27;7.95;;;;;;;5.71;51.67;101855.28;5069910;28;20526;-64
2021/12/18 04:22:27;;;;;;;9.93;8.00;;;;;;;5.74;51.49;101848.13;5069847;28;20403;-64
2021/12/18 04:24:54;;;;;;;10.27;8.00;;;;;;;5.69;51.79;101852.72;5069646;28;20415;-65
2021/12/18 04:27:21;;;;;;;18.02;16.45;;;;;;;5.78;51.44;101856.75;5069854;28;20413;-64
2021/12/18 04:29:48;;;;;;;10.63;9.00;;;;;;;5.89;51.15;101857.09;5069577;28;20498;-64
2021/12/18 04:32:15;;;;;;;10.53;9.40;;;;;;;5.80;51.25;101850.50;5069717;28;20419;-64
2021/12/18 04:34:42;;;;;;;12.95;11.65;;;;;;;5.80;51.12;101861.00;5069725;28;21513;-64
2021/12/18 04:37:10;;;;;;;11.15;9.35;;;;;;;5.71;51.36;101864.03;5069407;28;20772;-64
2021/12/18 04:39:37;;;;;;;12.13;10.00;;;;;;;5.70;51.43;101869.38;5069403;28;20403;-64
2021/12/18 04:42:04;;;;;;;11.77;10.50;;;;;;;5.62;51.67;101872.34;5069370;28;20785;-64
2021/12/18 04:44:31;;;;;;;11.68;7.72;;;;;;;5.61;51.62;101870.63;5069337;28;20486;-64
2021/12/18 04:46:58;;;;;;;10.18;8.10;;;;;;;5.69;51.63;101870.28;5069714;28;20502;-64
2021/12/18 04:49:25;;;;;;;9.38;8.05;;;;;;;5.68;51.61;101866.81;5069284;28;20490;-64
2021/12/18 04:51:52;;;;;;;11.57;9.43;;;;;;;5.68;51.45;101869.44;5069217;28;20494;-64
2021/12/18 04:54:20;;;;;;;10.32;9.13;;;;;;;5.72;51.48;101876.28;5069078;28;20967;-64
2021/12/18 04:56:47;;;;;;;14.15;9.25;;;;;;;5.52;51.81;101882.38;5069573;28;20856;-64
2021/12/18 04:59:14;;;;;;;12.20;9.90;;;;;;;5.61;51.75;101892.50;5069216;28;20411;-64
2021/12/18 05:01:41;;;;;;;13.73;10.75;;;;;;;5.50;51.88;101883.38;5052602;28;20525;-64
2021/12/18 05:04:10;;;;;;;12.43;10.20;;;;;;;5.52;51.89;101892.06;5069549;28;20776;-64
2021/12/18 05:06:39;;;;;;;18.75;16.95;;;;;;;5.66;51.63;101897.56;5069166;28;20415;-64
2021/12/18 05:09:06;;;;;;;14.18;9.80;;;;;;;5.56;51.71;101893.63;5069083;28;20465;-64
2021/12/18 05:11:34;;;;;;;18.30;16.50;;;;;;;5.59;51.64;101896.13;5069094;28;20501;-64
2021/12/18 05:14:01;;;;;;;15.70;12.98;;;;;;;5.66;51.48;101899.31;5069018;28;20517;-64
2021/12/18 05:16:28;;;;;;;17.60;12.63;;;;;;;5.45;51.77;101895.84;5069082;28;20454;-64
2021/12/18 05:18:55;;;;;;;16.75;14.23;;;;;;;5.49;51.84;101902.69;5069026;28;20415;-64
2021/12/18 05:21:22;;;;;;;20.15;17.60;;;;;;;5.50;51.95;101899.16;5068937;28;20872;-64
2021/12/18 05:23:49;;;;;;;23.02;18.88;;;;;;;5.46;51.96;101908.09;5071509;28;20402;-64
2021/12/18 05:26:16;;;;;;;22.98;14.68;;;;;;;5.38;52.14;101906.63;5073204;28;20419;-64
2021/12/18 05:28:45;;;;;;;25.48;17.33;;;;;;;5.48;51.64;101914.97;5072981;28;20529;-64
2021/12/18 05:31:16;;;;;;;28.60;18.83;;;;;;;5.42;52.15;101917.88;5073092;28;20407;-64
2021/12/18 05:33:44;;;;;;;48.22;43.33;;;;;;;5.42;52.06;101925.75;5072641;28;20426;-64
2021/12/18 05:36:30;;;;;;;37.55;23.73;;;;;;;5.23;52.08;101925.66;5072557;28;20519;-64
2021/12/18 05:38:59;;;;;;;25.13;19.27;;;;;;;5.32;52.09;101922.66;5073014;28;20406;-64
2021/12/18 05:41:26;;;;;;;16.67;14.48;;;;;;;5.10;52.57;101933.19;5072876;28;20410;-64
2021/12/18 05:43:55;;;;;;;17.88;16.00;;;;;;;5.16;52.58;101939.97;5072619;28;20498;-64
2021/12/18 05:46:22;;;;;;;12.98;8.77;;;;;;;4.93;53.15;101940.91;5072674;28;20440;-64
2021/12/18 05:48:49;;;;;;;11.63;8.90;;;;;;;5.09;52.77;101944.63;5072777;28;20409;-64
2021/12/18 05:51:16;;;;;;;13.10;11.38;;;;;;;5.08;52.77;101944.66;5072825;28;20414;-63
2021/12/18 05:53:43;;;;;;;15.50;11.68;;;;;;;5.06;52.96;101943.88;5072308;28;20534;-64
2021/12/18 05:56:10;;;;;;;15.88;12.70;;;;;;;5.35;52.03;101948.81;5072069;28;20411;-64
2021/12/18 05:58:37;;;;;;;17.25;14.05;;;;;;;5.39;52.07;101950.41;5072163;28;20505;-64
2021/12/18 06:01:05;;;;;;;14.55;11.88;;;;;;;5.49;51.57;101952.63;5065859;28;20503;-64
2021/12/18 06:03:32;;;;;;;16.23;13.73;;;;;;;5.56;51.17;101959.34;5063961;28;20494;-64
2021/12/18 06:05:59;;;;;;;17.88;15.98;;;;;;;5.66;50.84;101959.78;5072154;28;20498;-64
2021/12/18 06:08:27;;;;;;;16.40;14.13;;;;;;;5.86;50.40;101964.22;5072352;28;20583;-64
2021/12/18 06:10:55;;;;;;;13.95;11.82;;;;;;;6.03;50.16;101976.69;5054460;28;20415;-64
2021/12/18 06:13:22;;;;;;;16.00;13.07;;;;;;;6.36;49.15;101979.59;5071941;28;20433;-64
2021/12/18 06:15:49;;;;;;;16.40;13.85;;;;;;;6.60;48.46;101990.78;5072615;28;20447;-64
2021/12/18 06:18:18;;;;;;;18.90;13.48;;;;;;;7.36;46.92;101993.34;5072021;28;20490;-64
2021/12/18 06:20:45;;;;;;;17.48;13.32;;;;;;;8.49;44.39;101993.78;5072198;28;20410;-64
2021/12/18 06:23:12;;;;;;;14.97;11.53;;;;;;;8.85;43.25;102004.16;5072129;28;20419;-64
2021/12/18 06:25:39;;;;;;;13.40;12.00;;;;;;;9.50;41.93;102000.53;5072107;28;20493;-64
2021/12/18 06:28:06;;;;;;;21.23;19.23;;;;;;;10.14;40.65;101998.53;5072076;28;20481;-64
2021/12/18 06:30:33;;;;;;;18.73;16.73;;;;;;;10.35;39.60;102004.34;5071692;28;20411;-64
2021/12/18 06:32:59;;;;;;;27.05;24.27;;;;;;;11.04;39.13;102013.25;5071686;28;20490;-65
2021/12/18 06:35:28;;;;;;;15.20;13.60;;;;;;;12.45;36.32;102012.72;5070916;28;20872;-64
2021/12/18 06:37:55;;;;;;;14.90;13.48;;;;;;;12.40;36.31;102010.41;5071590;28;20489;-64
2021/12/18 06:40:22;;;;;;;15.77;14.05;;;;;;;12.61;35.38;102016.00;5071775;28;20411;-64
2021/12/18 06:42:49;;;;;;;17.27;15.20;;;;;;;13.53;34.24;102024.50;5071572;28;20787;-64
2021/12/18 06:45:16;;;;;;;15.73;12.32;;;;;;;15.07;31.68;102031.25;5071754;28;20548;-65
2021/12/18 06:47:43;;;;;;;17.20;14.43;;;;;;;15.49;30.86;102044.72;5071367;28;20527;-65
2021/12/18 06:50:10;;;;;;;19.73;14.90;;;;;;;14.95;31.26;102036.59;5071686;28;20495;-64
2021/12/18 06:52:39;;;;;;;16.77;12.68;;;;;;;15.38;30.77;102038.44;5071626;28;20430;-64
2021/12/18 06:55:06;;;;;;;15.00;13.02;;;;;;;17.50;28.03;102048.75;5071407;28;20509;-65
2021/12/18 06:57:33;;;;;;;15.02;11.60;;;;;;;16.50;28.74;102049.53;5071441;28;20406;-64
2021/12/18 07:00:00;;;;;;;16.45;13.40;;;;;;;15.02;30.57;102050.28;5071160;28;20493;-64
2021/12/18 07:02:27;;;;;;;18.20;15.13;;;;;;;13.91;32.40;102053.56;5054848;28;20414;-64
2021/12/18 07:04:53;;;;;;;29.27;26.35;;;;;;;13.53;33.06;102054.63;5071047;28;20411;-65
2021/12/18 07:07:20;;;;;;;17.23;13.15;;;;;;;13.15;33.80;102058.22;5070914;28;20912;-64
2021/12/18 07:09:49;;;;;;;18.30;12.88;;;;;;;12.86;34.04;102060.34;5071305;28;20411;-64
2021/12/18 07:12:16;;;;;;;19.13;13.07;;;;;;;12.65;34.64;102061.84;5071009;28;20493;-65
2021/12/18 07:14:43;;;;;;;19.85;12.65;;;;;;;12.47;35.04;102063.97;5070691;28;20875;-64
2021/12/18 07:17:10;;;;;;;17.58;13.52;;;;;;;12.48;35.03;102068.34;5070871;28;20958;-64
2021/12/18 07:19:37;;;;;;;21.45;15.02;;;;;;;12.54;35.29;102082.06;5071048;28;20410;-64
2021/12/18 07:22:05;;;;;;;23.67;17.37;;;;;;;12.70;35.08;102079.19;5070965;28;20533;-64
2021/12/18 07:24:32;;;;;;;25.20;17.83;;;;;;;13.58;33.77;102088.88;5070554;28;20911;-64
2021/12/18 07:27:00;;;;;;;27.27;18.88;;;;;;;14.05;32.88;102087.16;5070769;28;20407;-64
2021/12/18 07:29:27;;;;;;;27.42;19.30;;;;;;;14.07;33.10;102084.38;5070159;28;20403;-64
2021/12/18 07:31:54;;;;;;;30.95;21.02;;;;;;;13.64;33.49;102080.44;5070791;28;20407;-64
2021/12/18 07:34:21;;;;;;;33.78;21.60;;;;;;;13.23;34.11;102084.31;5070302;28;20954;-64
2021/12/18 07:36:48;;;;;;;36.90;25.90;;;;;;;12.99;34.81;102086.91;5070696;28;20417;-64
2021/12/18 07:39:16;;;;;;;29.40;21.30;;;;;;;12.86;34.55;102088.75;5070637;28;20415;-64
2021/12/18 07:41:43;;;;;;;27.70;18.95;;;;;;;12.62;35.52;102085.03;5070077;28;20414;-65
2021/12/18 07:44:12;;;;;;;23.42;16.23;;;;;;;12.47;35.86;102091.44;5070228;28;20790;-64
2021/12/18 07:46:40;;;;;;;20.83;14.38;;;;;;;12.46;35.88;102092.38;5069584;28;20847;-64
2021/12/18 07:49:08;;;;;;;20.67;14.70;;;;;;;12.34;35.91;102096.72;5070180;28;20493;-64
2021/12/18 07:51:36;;;;;;;21.55;15.82;;;;;;;12.31;36.32;102098.75;5070110;28;20498;-64
2021/12/18 07:54:03;;;;;;;26.10;19.20;;;;;;;12.29;36.20;102101.50;5069974;28;20431;-64
2021/12/18 07:56:30;;;;;;;20.40;14.52;;;;;;;12.50;35.94;102098.34;5070281;28;20415;-64
2021/12/18 07:58:58;;;;;;;19.58;15.30;;;;;;;12.40;35.95;102106.94;5070594;28;20493;-63
2021/12/18 08:01:26;;;;;;;25.40;15.47;;;;;;;12.44;36.02;102118.19;5056530;28;20415;-64
2021/12/18 08:03:53;;;;;;;22.65;12.35;;;;;;;12.75;35.47;102124.94;5067861;28;21033;-64
2021/12/18 08:06:20;;;;;;;20.50;12.30;;;;;;;12.84;35.20;102136.72;5069748;28;20884;-64
2021/12/18 08:08:47;;;;;;;18.70;12.18;;;;;;;13.41;34.36;102135.38;5069767;28;20804;-64
2021/12/18 08:11:15;;;;;;;22.70;12.00;;;;;;;15.91;31.24;102144.53;5069714;28;20501;-64
2021/12/18 08:13:42;;;;;;;16.88;9.90;;;;;;;19.00;26.72;102149.22;5069542;28;20418;-65
2021/12/18 08:16:09;;;;;;;14.65;8.90;;;;;;;21.34;23.91;102157.94;5069576;28;20410;-64
2021/12/18 08:18:37;;;;;;;13.87;8.93;;;;;;;23.86;21.18;102160.69;5069538;28;20530;-65
2021/12/18 08:21:04;;;;;;;14.02;10.52;;;;;;;24.67;20.21;102156.44;5069572;28;20415;-65
2021/12/18 08:23:31;;;;;;;15.00;9.97;;;;;;;25.25;19.08;102163.94;5069836;28;20407;-65
2021/12/18 08:25:58;;;;;;;13.18;8.77;;;;;;;26.60;17.63;102165.09;5069453;28;20908;-65
2021/12/18 08:28:25;;;;;;;13.40;8.35;;;;;;;25.57;18.42;102154.53;5069393;28;20833;-65
2021/12/18 08:30:52;;;;;;;16.60;10.00;;;;;;;27.98;16.49;102163.19;5069437;28;20983;-65
2021/12/18 08:33:18;;;;;;;11.30;8.60;;;;;;;28.33;15.95;102168.44;5069859;28;20478;-65
2021/12/18 08:35:47;;;;;;;11.13;7.68;;;;;;;28.61;15.62;102159.19;5069510;28;20431;-63
2021/12/18 08:38:14;;;;;;;12.45;7.75;;;;;;;29.51;14.92;102159.34;5068598;28;20502;-64
2021/12/18 08:40:42;;;;;;;9.07;7.43;;;;;;;30.71;14.04;102156.50;5068595;28;20415;-64
2021/12/18 08:43:09;;;;;;;9.85;7.28;;;;;;;31.25;13.46;102162.22;5068615;28;20415;-64
2021/12/18 08:45:36;;;;;;;11.77;8.00;;;;;;;31.91;12.66;102157.69;5068450;28;20415;-64
2021/12/18 08:48:03;;;;;;;7.30;6.60;;;;;;;31.66;12.80;102154.31;5068048;28;20415;-63
2021/12/18 08:50:31;;;;;;;8.85;6.78;;;;;;;30.32;13.30;102158.56;5066839;28;20500;-64
2021/12/18 08:52:59;;;;;;;9.57;6.28;;;;;;;25.16;17.71;102150.47;5068147;28;20407;-63
2021/12/18 08:55:26;;;;;;;10.98;7.72;;;;;;;24.04;18.23;102153.09;5068924;28;20514;-64
2021/12/18 08:57:53;;;;;;;8.27;5.80;;;;;;;22.82;19.87;102147.28;5069181;28;20955;-64
2021/12/18 09:00:23;;;;;;;8.15;6.30;;;;;;;22.10;20.37;102155.25;5069143;28;20502;-63
2021/12/18 09:02:53;;;;;;;9.70;5.90;;;;;;;23.26;19.53;102154.09;5054475;28;20406;-65
2021/12/18 09:05:20;;;;;;;18.42;7.45;;;;;;;24.48;18.62;102163.22;5068511;28;20498;-65
2021/12/18 09:07:47;;;;;;;12.13;6.80;;;;;;;24.68;18.38;102146.47;5067004;28;20417;-65
2021/12/18 09:10:15;;;;;;;10.30;6.07;;;;;;;24.47;18.63;102153.38;5068711;28;20502;-65
2021/12/18 09:12:42;;;;;;;11.20;5.72;;;;;;;23.78;18.85;102148.91;5067732;28;20498;-63
2021/12/18 09:15:10;;;;;;;7.30;4.70;;;;;;;22.74;20.34;102140.03;5067445;28;20431;-65
2021/12/18 09:17:37;;;;;;;5.95;4.22;;;;;;;23.08;19.51;102143.50;5069193;28;20450;-65
2021/12/18 09:20:05;;;;;;;8.47;4.90;;;;;;;24.30;18.67;102143.75;5069147;28;20414;-65
2021/12/18 09:22:32;;;;;;;7.07;5.10;;;;;;;26.42;16.90;102139.25;5068564;28;20411;-66
2021/12/18 09:25:00;;;;;;;8.07;5.20;;;;;;;25.51;17.81;102142.56;5066623;28;20484;-63
2021/12/18 09:27:28;;;;;;;9.55;6.40;;;;;;;26.77;16.18;102144.72;5067921;28;20411;-63
2021/12/18 09:29:55;;;;;;;8.70;6.35;;;;;;;29.00;14.71;102147.38;5067943;28;20414;-63
2021/12/18 09:32:22;;;;;;;10.17;7.50;;;;;;;25.08;18.12;102138.84;5068424;28;20446;-64
2021/12/18 09:34:49;;;;;;;10.38;7.80;;;;;;;22.06;20.54;102135.88;5068599;28;20430;-63
2021/12/18 09:37:16;;;;;;;14.10;7.28;;;;;;;21.06;22.10;102134.94;5068694;28;20410;-63
2021/12/18 09:39:43;;;;;;;9.65;5.72;;;;;;;24.62;18.75;102133.66;5068949;28;20800;-63
2021/12/18 09:42:10;;;;;;;9.18;5.30;;;;;;;27.19;16.04;102134.69;5068473;28;20411;-64
2021/12/18 09:44:39;;;;;;;5.93;4.57;;;;;;;27.62;15.52;102131.69;5068614;28;20410;-65
2021/12/18 09:47:06;;;;;;;5.25;4.28;;;;;;;28.75;14.21;102128.97;5069045;28;20542;-64
2021/12/18 09:49:34;;;;;;;7.68;5.60;;;;;;;29.87;13.34;102134.13;5068482;28;21072;-64
2021/12/18 09:52:01;;;;;;;7.97;5.67;;;;;;;30.45;13.04;102137.63;5068309;28;20966;-63
2021/12/18 09:54:28;;;;;;;4.35;3.90;;;;;;;30.44;12.92;102131.34;5067683;28;20447;-64
2021/12/18 09:56:55;;;;;;;6.97;4.30;;;;;;;30.05;13.17;102132.50;5068714;28;20403;-64
2021/12/18 09:59:22;;;;;;;7.25;4.25;;;;;;;30.23;12.83;102129.84;5068981;28;20529;-63
2021/12/18 10:01:51;;;;;;;8.02;3.80;;;;;;;30.43;13.24;102123.34;5053143;28;20403;-64
2021/12/18 10:04:31;;;;;;;9.23;5.00;;;;;;;32.31;11.60;102120.56;5068313;28;20923;-64
2021/12/18 10:06:58;;;;;;;18.60;16.63;;;;;;;32.01;11.61;102117.94;5068232;28;20411;-63
2021/12/18 10:09:37;;;;;;;7.47;3.95;;;;;;;31.26;12.05;102122.81;5068408;28;20510;-64
2021/12/18 10:12:13;;;;;;;7.93;4.70;;;;;;;31.67;11.76;102115.72;5072220;28;20407;-64
2021/12/18 10:14:45;;;;;;;8.95;5.78;;;;;;;31.52;11.61;102121.63;5071036;28;21001;-64
2021/12/18 10:17:25;;;;;;;7.10;4.78;;;;;;;30.48;12.27;102120.78;5069902;28;20514;-63
2021/12/18 10:19:55;;;;;;;6.40;5.32;;;;;;;31.41;11.70;102119.66;5071805;28;20411;-64
2021/12/18 10:22:22;;;;;;;9.30;6.07;;;;;;;27.68;14.06;102116.41;5071398;28;20410;-64
2021/12/18 10:25:04;;;;;;;7.35;5.25;;;;;;;24.61;16.67;102119.25;5071947;28;20415;-63
2021/12/18 10:27:31;;;;;;;7.72;5.25;;;;;;;23.33;17.85;102115.31;5071628;28;20414;-63
2021/12/18 10:30:11;;;;;;;13.32;6.20;;;;;;;21.35;19.93;102112.97;5071714;28;20415;-63
2021/12/18 10:32:39;;;;;;;10.80;6.93;;;;;;;20.87;20.48;102114.47;5071956;28;20418;-63
2021/12/18 10:35:07;;;;;;;7.80;4.72;;;;;;;20.11;21.09;102110.59;5071784;28;20463;-63
2021/12/18 10:37:35;;;;;;;11.20;7.00;;;;;;;19.80;21.34;102111.84;5071668;28;20429;-65
2021/12/18 10:40:06;;;;;;;10.48;6.07;;;;;;;19.24;22.01;102110.19;5071766;28;20415;-64
2021/12/18 10:42:39;;;;;;;17.33;9.75;;;;;;;17.86;23.41;102107.16;5071386;28;20403;-63
2021/12/18 10:45:17;;;;;;;11.27;6.53;;;;;;;18.24;23.76;102108.97;5071585;28;20502;-63
2021/12/18 10:47:53;;;;;;;13.73;10.32;;;;;;;18.74;23.30;102106.03;5071697;28;20483;-63
2021/12/18 10:50:24;;;;;;;11.73;10.00;;;;;;;18.61;23.49;102109.03;5071288;28;20853;-62
2021/12/18 10:52:57;;;;;;;11.90;8.20;;;;;;;18.60;23.64;102123.44;5071266;28;20418;-65
2021/12/18 10:55:37;;;;;;;10.25;6.70;;;;;;;20.27;21.90;102117.94;5071128;28;20431;-62
2021/12/18 10:58:06;;;;;;;9.95;7.35;;;;;;;19.10;23.68;102118.75;5071379;28;20451;-65
2021/12/18 11:00:43;;;;;;;19.23;12.77;;;;;;;18.14;24.26;102119.72;5071311;28;20494;-64
2021/12/18 11:03:37;;;;;;;11.30;6.85;;;;;;;18.08;24.44;102117.59;5071462;28;20498;-64
2021/12/18 11:06:15;;;;;;;13.77;8.80;;;;;;;17.55;25.10;102120.66;5052807;28;20407;-63
2021/12/18 11:09:04;;;;;;;14.30;6.95;;;;;;;17.45;25.41;102119.78;5070909;28;20510;-63
2021/12/18 11:14:20;;;;;;;11.50;7.35;;;;;;;17.65;25.32;102113.47;5070881;28;20931;-64
2021/12/18 11:16:49;;;;;;;9.32;6.72;;;;;;;17.14;25.82;102127.88;5070657;28;20816;-64
2021/12/18 11:19:19;;;;;;;7.47;4.55;;;;;;;16.51;26.40;102123.47;5070763;28;20913;-64
2021/12/18 11:21:48;;;;;;;8.48;5.75;;;;;;;16.34;25.74;102106.19;5070604;28;20967;-63
2021/12/18 11:24:16;;;;;;;6.75;5.38;;;;;;;15.87;25.64;102118.22;5070585;28;20931;-63
2021/12/18 11:26:47;;;;;;;6.30;5.05;;;;;;;16.91;24.94;102112.03;5070592;28;20446;-63
2021/12/18 11:29:20;;;;;;;11.18;8.57;;;;;;;17.90;24.05;102108.56;5070818;28;20943;-63
2021/12/18 11:31:48;;;;;;;7.37;4.40;;;;;;;16.99;24.64;102109.53;5070490;28;21014;-63
2021/12/18 11:34:18;;;;;;;6.33;4.40;;;;;;;17.39;24.16;102097.06;5070355;28;20403;-63
2021/12/18 11:36:47;;;;;;;4.75;3.53;;;;;;;16.17;25.27;102104.94;5070245;28;20522;-63
2021/12/18 11:39:17;;;;;;;7.37;4.83;;;;;;;16.66;24.98;102107.91;5070399;28;20863;-63
2021/12/18 11:41:49;;;;;;;5.88;5.00;;;;;;;17.54;24.36;102109.09;5070605;28;20493;-63
2021/12/18 11:44:41;;;;;;;5.75;4.00;;;;;;;17.02;23.99;102103.88;5070236;28;20505;-63
2021/12/18 11:47:27;;;;;;;4.22;3.40;;;;;;;16.65;23.97;102097.38;5051269;28;20493;-63
2021/12/18 11:49:58;;;;;;;6.22;3.85;;;;;;;16.32;24.39;102093.91;5053007;28;20854;-63
2021/12/18 11:52:26;;;;;;;5.57;3.85;;;;;;;15.61;25.16;102097.13;5070454;28;20486;-63
2021/12/18 11:54:55;;;;;;;6.55;4.03;;;;;;;15.11;26.25;102100.28;5069948;28;20418;-63
2021/12/18 11:57:44;;;;;;;7.90;4.97;;;;;;;15.84;25.60;102102.44;5070221;28;20415;-63
2021/12/18 12:00:39;;;;;;;7.63;4.90;;;;;;;15.18;26.73;102098.78;5069901;28;20966;-63
2021/12/18 12:03:07;;;;;;;5.05;3.65;;;;;;;14.58;27.11;102100.03;5069976;28;20411;-63